Time;durP1;ratioP1;P1;durP2;ratioP2;P2;SDS_P1;SDS_P2;PMS_P1;PMS_P2;Temp;Humidity;BMP_temperature;BMP_pressure;BME280_temperature;BME280_humidity;BME280_pressure;Samples;Min_cycle;Max_cycle;Signal;HPM_P1;HPM_P2
2022/01/14 00:01:31;;;;;;;22.77;17.10;;;4.10;99.90;;;;;;4947368;29;20757;-65
2022/01/14 00:03:59;;;;;;;17.23;15.68;;;3.90;99.90;;;;;;4947185;29;20239;-65
2022/01/14 00:06:27;;;;;;;18.67;17.00;;;3.80;99.90;;;;;;4950104;28;20688;-65
2022/01/14 00:09:04;;;;;;;19.80;17.95;;;3.70;99.90;;;;;;4952874;28;20286;-65
2022/01/14 00:11:32;;;;;;;20.05;18.05;;;3.80;99.90;;;;;;4953082;28;20210;-63
2022/01/14 00:14:10;;;;;;;20.20;18.30;;;3.60;99.90;;;;;;4952848;28;20207;-62
2022/01/14 00:16:38;;;;;;;20.02;18.08;;;3.70;99.90;;;;;;4953381;28;20250;-62
2022/01/14 00:19:06;;;;;;;17.90;16.08;;;3.80;99.90;;;;;;4953053;28;20209;-62
2022/01/14 00:21:36;;;;;;;17.88;16.20;;;3.90;99.90;;;;;;4953192;28;20242;-62
2022/01/14 00:24:09;;;;;;;20.30;18.17;;;4.00;99.90;;;;;;4952805;28;20724;-62
2022/01/14 00:32:18;;;;;;;19.20;17.40;;;3.00;99.90;;;;;;4949540;29;20639;-64
2022/01/14 00:34:46;;;;;;;19.33;17.48;;;2.90;99.90;;;;;;4952992;28;20306;-64
2022/01/14 00:37:15;;;;;;;22.17;20.08;;;2.90;99.90;;;;;;4952846;29;20720;-64
2022/01/14 00:39:46;;;;;;;26.27;18.10;;;3.10;99.90;;;;;;4953114;28;20282;-64
2022/01/14 00:42:14;;;;;;;19.48;17.67;;;3.20;99.90;;;;;;4952920;28;20233;-64
2022/01/14 00:44:42;;;;;;;19.48;17.65;;;3.30;99.90;;;;;;4952703;28;20245;-64
2022/01/14 00:47:10;;;;;;;20.30;18.40;;;3.30;99.90;;;;;;4952970;28;20330;-65
2022/01/14 00:49:38;;;;;;;19.73;17.92;;;3.20;99.90;;;;;;4953063;28;20294;-64
2022/01/14 00:52:07;;;;;;;20.73;18.83;;;3.10;99.90;;;;;;4952771;28;20724;-64
2022/01/14 00:54:34;;;;;;;21.00;18.13;;;3.20;99.90;;;;;;4952812;28;20282;-64
2022/01/14 00:57:26;;;;;;;20.60;18.42;;;3.30;99.90;;;;;;4956892;28;20670;-64
2022/01/14 00:59:53;;;;;;;21.00;17.63;;;3.40;99.90;;;;;;4948072;29;20230;-64
2022/01/14 01:02:21;;;;;;;20.92;18.85;;;3.50;99.90;;;;;;4952581;28;20576;-64
2022/01/14 01:04:50;;;;;;;20.50;18.50;;;3.60;99.90;;;;;;4953852;28;20214;-64
2022/01/14 01:07:18;;;;;;;18.33;16.52;;;3.70;99.90;;;;;;4956250;28;20771;-64
2022/01/14 01:09:49;;;;;;;19.77;17.75;;;3.80;99.90;;;;;;4956221;28;20291;-64
2022/01/14 01:12:31;;;;;;;20.33;18.33;;;3.90;99.90;;;;;;4956498;28;20297;-62
2022/01/14 01:15:08;;;;;;;24.08;18.73;;;4.00;99.90;;;;;;4956157;28;20250;-62
2022/01/14 01:17:36;;;;;;;18.30;16.50;;;4.00;99.90;;;;;;4956481;28;20239;-62
2022/01/14 01:20:11;;;;;;;18.33;16.63;;;3.90;99.90;;;;;;4955910;28;20277;-62
2022/01/14 01:22:39;;;;;;;16.30;14.77;;;3.90;99.90;;;;;;4949715;28;20804;-62
2022/01/14 01:25:09;;;;;;;16.33;14.70;;;3.90;99.90;;;;;;4949479;29;20231;-62
2022/01/14 01:27:41;;;;;;;13.95;12.65;;;3.90;99.90;;;;;;4950100;29;20322;-62
2022/01/14 01:30:15;;;;;;;14.80;13.50;;;3.90;99.90;;;;;;4956271;28;20207;-64
2022/01/14 01:32:48;;;;;;;16.10;14.60;;;3.90;99.90;;;;;;4955765;28;20247;-64
2022/01/14 01:35:17;;;;;;;13.20;12.02;;;3.70;99.90;;;;;;4955658;28;20250;-64
2022/01/14 01:37:45;;;;;;;13.27;12.07;;;3.70;99.90;;;;;;4955764;28;20656;-65
2022/01/14 01:40:15;;;;;;;14.45;13.23;;;3.80;99.90;;;;;;4955938;28;20290;-65
2022/01/14 01:42:46;;;;;;;17.60;13.90;;;3.80;99.90;;;;;;4956016;28;20294;-65
2022/01/14 01:45:20;;;;;;;16.92;15.32;;;3.90;99.90;;;;;;4955531;28;20668;-65
2022/01/14 01:47:50;;;;;;;15.82;14.43;;;3.90;99.90;;;;;;4955837;28;20313;-65
2022/01/14 01:50:22;;;;;;;16.60;14.95;;;3.90;99.90;;;;;;4955751;28;20574;-65
2022/01/14 01:52:50;;;;;;;15.65;14.15;;;3.80;99.90;;;;;;4955610;28;20609;-65
2022/01/14 01:55:20;;;;;;;16.08;14.57;;;3.90;99.90;;;;;;4955114;28;20329;-65
2022/01/14 01:57:50;;;;;;;17.40;15.70;;;3.80;99.90;;;;;;4955613;28;20290;-65
2022/01/14 02:00:22;;;;;;;16.15;14.65;;;3.80;99.90;;;;;;4955850;28;20294;-65
2022/01/14 02:02:50;;;;;;;15.25;14.00;;;3.80;99.90;;;;;;4961396;28;20649;-65
2022/01/14 02:05:18;;;;;;;15.07;13.73;;;3.80;99.90;;;;;;4948786;28;20227;-63
2022/01/14 02:07:47;;;;;;;15.70;14.35;;;4.00;99.90;;;;;;4953019;29;20258;-62
2022/01/14 02:10:14;;;;;;;15.40;14.02;;;4.00;99.90;;;;;;4949241;29;20237;-63
2022/01/14 02:12:49;;;;;;;16.33;14.82;;;3.60;99.90;;;;;;4948990;29;20250;-62
2022/01/14 02:15:43;;;;;;;15.85;14.38;;;3.40;99.90;;;;;;4949991;29;20641;-62
2022/01/14 02:18:32;;;;;;;16.88;15.38;;;3.30;99.90;;;;;;4955359;28;20611;-62
2022/01/14 02:23:53;;;;;;;16.20;14.68;;;3.10;99.90;;;;;;4954845;28;20203;-62
2022/01/14 02:26:22;;;;;;;16.88;15.27;;;3.20;99.90;;;;;;4954903;28;20239;-62
2022/01/14 02:28:50;;;;;;;14.40;13.20;;;3.30;99.90;;;;;;4954862;28;20290;-62
2022/01/14 02:31:19;;;;;;;14.25;13.00;;;3.40;99.90;;;;;;4955029;28;20295;-62
2022/01/14 02:33:46;;;;;;;14.45;13.25;;;3.60;99.90;;;;;;4954520;28;20286;-62
2022/01/14 02:36:16;;;;;;;14.85;13.55;;;3.80;99.90;;;;;;4954453;28;20247;-63
2022/01/14 02:38:45;;;;;;;12.25;11.15;;;3.70;99.90;;;;;;4954831;28;20290;-62
2022/01/14 02:41:15;;;;;;;12.85;11.75;;;3.60;99.90;;;;;;4954717;28;20199;-62
2022/01/14 02:43:42;;;;;;;13.27;12.07;;;3.30;99.90;;;;;;4954340;28;20234;-62
2022/01/14 02:46:13;;;;;;;12.70;11.70;;;3.50;99.90;;;;;;4954638;28;20711;-62
2022/01/14 02:48:41;;;;;;;17.05;11.88;;;3.60;99.90;;;;;;4954647;28;20310;-62
2022/01/14 02:51:12;;;;;;;12.00;11.00;;;3.60;99.90;;;;;;4954618;28;20298;-62
2022/01/14 02:53:45;;;;;;;11.93;10.88;;;3.70;99.90;;;;;;4954288;29;20227;-61
2022/01/14 02:56:21;;;;;;;13.25;12.05;;;3.70;99.90;;;;;;4948416;29;20342;-61
2022/01/14 02:58:48;;;;;;;12.10;11.02;;;3.70;99.90;;;;;;4954614;28;20298;-62
2022/01/14 03:01:21;;;;;;;14.23;10.88;;;3.70;99.90;;;;;;4954513;28;20639;-62
2022/01/14 03:03:54;;;;;;;11.10;10.20;;;3.70;99.90;;;;;;4954023;28;20298;-62
2022/01/14 03:06:22;;;;;;;13.50;11.85;;;3.70;99.90;;;;;;4954008;28;20621;-62
2022/01/14 03:08:51;;;;;;;15.25;11.73;;;3.30;99.90;;;;;;4958054;28;20948;-63
2022/01/14 03:11:24;;;;;;;12.23;11.05;;;2.70;99.90;;;;;;4957247;28;20716;-63
2022/01/14 03:13:52;;;;;;;12.85;11.75;;;2.90;99.90;;;;;;4953966;28;20282;-64
2022/01/14 03:16:21;;;;;;;11.15;10.20;;;3.00;99.90;;;;;;4954121;28;20686;-63
2022/01/14 03:18:52;;;;;;;9.77;9.07;;;3.00;99.90;;;;;;4954045;28;20230;-63
2022/01/14 03:21:27;;;;;;;11.48;10.38;;;2.90;99.90;;;;;;4954092;28;20664;-63
2022/01/14 03:24:14;;;;;;;11.23;10.32;;;2.90;99.90;;;;;;4953618;28;20294;-62
2022/01/14 03:26:45;;;;;;;10.40;9.60;;;3.00;99.90;;;;;;4953910;28;20297;-63
2022/01/14 03:29:13;;;;;;;11.25;10.32;;;3.10;99.90;;;;;;4953070;28;20669;-63
2022/01/14 03:31:42;;;;;;;13.07;9.77;;;3.10;99.90;;;;;;4953959;28;20301;-64
2022/01/14 03:34:09;;;;;;;12.13;11.00;;;3.10;99.90;;;;;;4953606;28;20280;-63
2022/01/14 03:36:37;;;;;;;12.50;11.25;;;3.30;99.90;;;;;;4954363;28;20302;-63
2022/01/14 03:39:07;;;;;;;10.43;9.55;;;3.40;99.90;;;;;;4950072;29;20294;-63
2022/01/14 03:41:34;;;;;;;10.88;9.98;;;3.10;99.90;;;;;;4953889;28;20286;-63
2022/01/14 03:44:03;;;;;;;9.85;9.15;;;3.10;99.90;;;;;;4953548;28;20309;-62
2022/01/14 03:46:30;;;;;;;10.15;9.25;;;3.10;99.90;;;;;;4953543;28;20259;-63
2022/01/14 03:48:59;;;;;;;10.23;9.43;;;3.10;99.90;;;;;;4953634;28;20321;-63
2022/01/14 03:51:28;;;;;;;9.82;8.38;;;3.20;99.90;;;;;;4953761;28;20720;-63
2022/01/14 03:53:56;;;;;;;10.20;9.40;;;3.20;99.90;;;;;;4952975;28;20278;-64
2022/01/14 03:56:27;;;;;;;10.50;9.60;;;3.30;99.90;;;;;;4953046;28;20255;-63
2022/01/14 03:58:55;;;;;;;10.50;9.40;;;3.20;99.90;;;;;;4951776;29;20262;-63
2022/01/14 04:01:23;;;;;;;10.88;9.98;;;3.30;99.90;;;;;;4953561;28;20294;-63
2022/01/14 04:03:51;;;;;;;11.30;10.40;;;3.30;99.90;;;;;;4953113;28;20218;-63
2022/01/14 04:06:19;;;;;;;10.40;9.50;;;3.40;99.90;;;;;;4952936;28;20219;-63
2022/01/14 04:08:47;;;;;;;11.00;9.90;;;3.30;99.90;;;;;;4953122;28;20321;-63
2022/01/14 04:11:15;;;;;;;10.05;9.23;;;2.50;99.90;;;;;;4953637;28;20302;-63
2022/01/14 04:13:48;;;;;;;12.10;11.15;;;1.90;99.90;;;;;;4956335;28;20278;-63
2022/01/14 04:16:17;;;;;;;11.65;10.75;;;1.40;99.90;;;;;;4955406;28;20662;-63
2022/01/14 04:18:46;;;;;;;11.70;10.80;;;1.40;99.90;;;;;;4953172;28;20207;-62
2022/01/14 04:21:14;;;;;;;12.82;11.48;;;1.70;99.90;;;;;;4953135;28;20294;-62
2022/01/14 04:23:42;;;;;;;13.43;12.13;;;1.40;99.90;;;;;;4952804;28;20645;-62
2022/01/14 04:26:10;;;;;;;13.13;11.50;;;1.20;99.90;;;;;;4953107;28;20269;-62
2022/01/14 04:28:38;;;;;;;14.00;12.73;;;1.40;99.90;;;;;;4953111;28;20313;-62
2022/01/14 04:31:09;;;;;;;14.55;13.15;;;1.40;99.90;;;;;;4953180;28;20299;-62
2022/01/14 04:33:38;;;;;;;14.88;13.50;;;1.60;99.90;;;;;;4952947;28;20230;-61
2022/01/14 04:36:07;;;;;;;14.15;13.00;;;1.70;99.90;;;;;;4952425;28;20325;-62
2022/01/14 04:38:35;;;;;;;17.90;14.00;;;2.00;99.90;;;;;;4953060;29;20231;-63
2022/01/14 04:41:04;;;;;;;14.95;13.43;;;2.20;99.90;;;;;;4956698;28;20306;-63
2022/01/14 04:43:32;;;;;;;18.10;12.70;;;2.40;99.90;;;;;;4956781;28;20290;-62
2022/01/14 04:46:24;;;;;;;14.23;12.70;;;2.60;99.90;;;;;;4956702;29;20223;-62
2022/01/14 04:48:53;;;;;;;13.27;12.23;;;2.70;99.90;;;;;;4957114;28;20238;-62
2022/01/14 04:51:21;;;;;;;13.73;12.43;;;2.80;99.90;;;;;;4956835;28;20644;-63
2022/01/14 04:53:49;;;;;;;14.68;13.38;;;2.80;99.90;;;;;;4956569;28;20203;-62
2022/01/14 04:56:17;;;;;;;17.02;12.10;;;3.00;99.90;;;;;;4975179;23;20326;-73
2022/01/14 04:58:45;;;;;;;13.13;11.90;;;3.10;99.90;;;;;;4950560;29;20223;-71
2022/01/14 05:01:13;;;;;;;31.67;14.20;;;3.00;99.90;;;;;;4956660;29;20295;-72
2022/01/14 05:03:41;;;;;;;14.60;12.82;;;2.90;99.90;;;;;;4956468;29;20683;-71
2022/01/14 05:06:10;;;;;;;15.98;14.20;;;2.60;99.90;;;;;;4950578;29;20274;-71
2022/01/14 05:08:39;;;;;;;18.90;14.60;;;2.70;99.90;;;;;;4945090;29;20310;-71
2022/01/14 05:11:23;;;;;;;21.73;14.05;;;2.40;99.90;;;;;;4956729;29;20245;-72
2022/01/14 05:13:51;;;;;;;15.50;14.10;;;2.20;99.90;;;;;;4956463;29;20296;-72
2022/01/14 05:16:19;;;;;;;14.85;13.57;;;2.30;99.90;;;;;;4956120;29;20322;-72
2022/01/14 05:18:47;;;;;;;15.88;14.35;;;2.50;99.90;;;;;;4955700;29;20291;-72
2022/01/14 05:21:17;;;;;;;18.67;14.85;;;2.30;99.90;;;;;;4941601;29;20209;-71
2022/01/14 05:23:45;;;;;;;16.20;14.60;;;2.40;99.90;;;;;;4944242;29;20250;-71
2022/01/14 05:26:12;;;;;;;15.85;14.55;;;2.30;99.90;;;;;;4944066;29;20238;-71
2022/01/14 05:28:40;;;;;;;18.77;14.55;;;2.40;99.90;;;;;;4930372;29;20236;-72
2022/01/14 05:31:08;;;;;;;15.93;14.35;;;2.40;99.90;;;;;;4930124;29;20282;-72
2022/01/14 05:33:39;;;;;;;29.77;16.08;;;2.40;99.90;;;;;;4926101;29;20557;-74
2022/01/14 05:36:07;;;;;;;15.13;13.93;;;2.20;99.90;;;;;;4909944;29;20231;-73
2022/01/14 05:38:36;;;;;;;15.95;14.10;;;2.20;99.90;;;;;;4931648;29;20288;-72
2022/01/14 05:41:04;;;;;;;16.88;15.25;;;2.40;99.90;;;;;;4930710;29;20279;-73
2022/01/14 05:43:32;;;;;;;18.35;14.70;;;2.50;99.90;;;;;;4924240;29;20694;-70
2022/01/14 05:46:00;;;;;;;14.82;13.65;;;2.50;99.90;;;;;;4927023;29;20866;-71
2022/01/14 05:48:28;;;;;;;14.73;13.27;;;2.30;99.90;;;;;;4927956;29;20879;-70
2022/01/14 05:50:55;;;;;;;17.60;15.23;;;2.10;99.90;;;;;;4926990;28;20196;-71
2022/01/14 05:53:23;;;;;;;14.10;12.90;;;2.00;99.90;;;;;;4920261;29;20244;-71
2022/01/14 05:55:52;;;;;;;13.73;12.63;;;1.80;99.90;;;;;;4925200;29;20363;-70
2022/01/14 05:58:20;;;;;;;14.50;13.20;;;1.80;99.90;;;;;;4923865;29;20212;-70
2022/01/14 06:00:48;;;;;;;15.73;14.35;;;1.60;99.90;;;;;;4928403;29;20647;-70
2022/01/14 06:03:17;;;;;;;14.80;13.57;;;1.50;99.90;;;;;;4923321;29;20682;-70
2022/01/14 06:05:45;;;;;;;16.27;14.73;;;1.50;99.90;;;;;;4921206;29;20216;-69
2022/01/14 06:08:13;;;;;;;17.77;15.10;;;1.40;99.90;;;;;;4925893;29;20287;-71
2022/01/14 06:10:41;;;;;;;14.88;13.68;;;1.40;99.90;;;;;;4935491;29;20229;-70
2022/01/14 06:13:10;;;;;;;18.15;14.77;;;1.20;99.90;;;;;;4920989;29;20319;-71
2022/01/14 06:15:38;;;;;;;15.70;14.05;;;1.20;99.90;;;;;;4936904;29;20295;-71
2022/01/14 06:18:06;;;;;;;16.33;14.88;;;1.10;99.90;;;;;;4944078;29;20323;-71
2022/01/14 06:20:34;;;;;;;15.95;14.55;;;1.10;99.90;;;;;;4932649;29;20295;-70
2022/01/14 06:23:02;;;;;;;15.13;13.82;;;1.10;99.90;;;;;;4935243;29;20251;-70
2022/01/14 06:25:30;;;;;;;16.10;14.60;;;1.10;99.90;;;;;;4935873;29;20204;-71
2022/01/14 06:27:58;;;;;;;13.95;12.75;;;1.00;99.90;;;;;;4944830;29;20295;-71
2022/01/14 06:30:27;;;;;;;21.30;14.40;;;1.00;99.90;;;;;;4947409;29;20239;-71
2022/01/14 06:32:56;;;;;;;24.80;15.45;;;1.00;99.90;;;;;;4934979;29;20647;-70
2022/01/14 06:35:24;;;;;;;15.20;13.77;;;0.90;99.90;;;;;;4946127;29;20235;-71
2022/01/14 06:37:52;;;;;;;29.20;16.33;;;0.90;99.90;;;;;;4935371;29;20686;-71
2022/01/14 06:40:20;;;;;;;17.38;15.60;;;0.80;99.90;;;;;;4930430;29;20236;-70
2022/01/14 06:42:49;;;;;;;16.50;15.10;;;0.60;99.90;;;;;;4936515;29;20208;-72
2022/01/14 06:45:17;;;;;;;18.75;16.73;;;0.60;99.90;;;;;;4943803;29;20307;-71
2022/01/14 06:47:47;;;;;;;18.02;16.42;;;0.60;99.90;;;;;;4946703;29;20571;-71
2022/01/14 06:50:15;;;;;;;17.85;16.20;;;0.60;99.90;;;;;;4941327;29;20381;-71
2022/01/14 06:52:43;;;;;;;19.40;17.55;;;0.60;99.90;;;;;;4945191;29;20298;-71
2022/01/14 06:55:11;;;;;;;18.85;17.05;;;0.70;99.90;;;;;;4931151;29;20286;-71
2022/01/14 06:57:39;;;;;;;17.58;15.85;;;0.80;99.90;;;;;;4948076;29;20298;-71
2022/01/14 07:00:10;;;;;;;17.02;15.52;;;0.80;99.90;;;;;;4944371;29;20671;-70
2022/01/14 07:02:38;;;;;;;17.50;15.40;;;0.80;99.90;;;;;;4945319;28;20212;-71
2022/01/14 07:05:08;;;;;;;17.40;15.80;;;0.80;99.90;;;;;;4942099;29;20267;-70
2022/01/14 07:07:37;;;;;;;18.20;15.15;;;0.80;99.90;;;;;;4942475;29;20238;-71
2022/01/14 07:10:06;;;;;;;19.23;16.52;;;0.90;99.90;;;;;;4944241;29;20640;-71
2022/01/14 07:12:36;;;;;;;17.88;16.15;;;1.00;99.90;;;;;;4947188;29;20235;-71
2022/01/14 07:15:07;;;;;;;20.10;17.75;;;1.00;99.90;;;;;;4941044;29;20322;-71
2022/01/14 07:17:35;;;;;;;22.27;17.60;;;1.00;99.90;;;;;;4943445;29;20247;-71
2022/01/14 07:20:07;;;;;;;19.70;17.80;;;1.00;99.90;;;;;;4934018;29;20821;-71
2022/01/14 07:22:36;;;;;;;19.80;17.90;;;0.90;99.90;;;;;;4941383;29;20239;-71
2022/01/14 07:25:05;;;;;;;20.23;15.65;;;0.90;99.90;;;;;;4944375;29;20231;-71
2022/01/14 07:27:33;;;;;;;20.88;17.02;;;0.80;99.90;;;;;;4944384;29;20731;-72
2022/01/14 07:30:01;;;;;;;26.35;16.08;;;0.80;99.90;;;;;;4954119;29;20747;-71
2022/01/14 07:32:29;;;;;;;16.52;14.93;;;0.80;99.90;;;;;;4948991;29;20203;-71
2022/01/14 07:34:57;;;;;;;26.33;17.80;;;0.80;99.90;;;;;;4953056;29;20645;-71
2022/01/14 07:37:25;;;;;;;18.58;16.67;;;0.80;99.90;;;;;;4951490;29;20630;-71
2022/01/14 07:39:54;;;;;;;20.58;17.45;;;0.70;99.90;;;;;;4939937;29;20266;-71
2022/01/14 07:42:22;;;;;;;19.95;17.52;;;0.70;99.90;;;;;;4951836;29;20250;-71
2022/01/14 07:44:50;;;;;;;19.60;17.70;;;0.70;99.90;;;;;;4953811;29;20207;-71
2022/01/14 07:47:18;;;;;;;19.40;17.60;;;0.60;99.90;;;;;;4953789;29;20226;-71
2022/01/14 07:49:46;;;;;;;18.88;17.17;;;0.70;99.90;;;;;;4954035;29;20216;-71
2022/01/14 07:52:14;;;;;;;19.33;17.40;;;0.80;99.90;;;;;;4953742;29;20203;-71
2022/01/14 07:54:42;;;;;;;17.60;16.00;;;0.80;99.90;;;;;;4953872;29;20208;-71
2022/01/14 07:57:12;;;;;;;17.35;14.75;;;0.70;99.90;;;;;;4953359;29;20239;-71
2022/01/14 07:59:41;;;;;;;18.42;16.52;;;0.70;99.90;;;;;;4953351;29;20238;-71
2022/01/14 08:02:09;;;;;;;17.67;15.88;;;0.70;99.90;;;;;;4953847;29;20620;-71
2022/01/14 08:04:42;;;;;;;20.25;18.10;;;0.70;99.90;;;;;;4953898;29;20207;-71
2022/01/14 08:07:12;;;;;;;18.00;15.52;;;0.50;99.90;;;;;;4949445;29;20223;-71
2022/01/14 08:09:42;;;;;;;20.92;18.05;;;0.40;99.90;;;;;;4945447;29;20213;-71
2022/01/14 08:12:13;;;;;;;18.73;16.92;;;0.50;99.90;;;;;;4943481;29;20484;-71
2022/01/14 08:14:41;;;;;;;17.20;15.60;;;0.40;99.90;;;;;;4953138;29;20623;-71
2022/01/14 08:17:11;;;;;;;20.15;18.05;;;0.40;99.90;;;;;;4953403;29;20585;-71
2022/01/14 08:19:40;;;;;;;19.30;17.50;;;0.50;99.90;;;;;;4953507;29;20206;-71
2022/01/14 08:22:09;;;;;;;17.42;15.00;;;0.50;99.90;;;;;;4953271;29;20230;-71
2022/01/14 08:24:38;;;;;;;18.35;16.48;;;0.60;99.90;;;;;;4953671;29;20203;-71
2022/01/14 08:27:07;;;;;;;19.00;17.10;;;0.50;99.90;;;;;;4953127;29;20704;-71
2022/01/14 08:29:37;;;;;;;23.88;21.27;;;0.50;99.90;;;;;;4953597;29;20207;-71
2022/01/14 08:32:05;;;;;;;25.42;22.23;;;0.60;99.90;;;;;;4953202;29;20234;-71
2022/01/14 08:34:34;;;;;;;31.02;22.55;;;0.60;99.90;;;;;;4953345;29;20720;-72
2022/01/14 08:37:03;;;;;;;42.35;25.00;;;0.60;99.90;;;;;;4937839;29;20230;-71
2022/01/14 08:39:31;;;;;;;28.38;23.20;;;0.50;99.90;;;;;;4934657;29;20254;-71
2022/01/14 08:41:59;;;;;;;24.30;21.63;;;0.50;99.90;;;;;;4947955;29;20259;-70
2022/01/14 08:44:27;;;;;;;23.30;20.90;;;0.50;99.90;;;;;;4953391;29;20215;-70
2022/01/14 08:46:57;;;;;;;27.08;21.98;;;0.50;99.90;;;;;;4953204;29;20223;-72
2022/01/14 08:49:25;;;;;;;21.20;18.98;;;0.40;99.90;;;;;;4953007;29;20235;-71
2022/01/14 08:51:53;;;;;;;18.77;16.83;;;0.30;99.90;;;;;;4952923;29;20234;-72
2022/01/14 08:54:21;;;;;;;21.13;18.92;;;0.30;99.90;;;;;;4953158;29;20234;-71
2022/01/14 08:56:49;;;;;;;20.25;18.30;;;0.30;99.90;;;;;;4952581;29;20758;-71
2022/01/14 08:59:18;;;;;;;20.60;18.40;;;0.40;99.90;;;;;;4953252;29;20208;-71
2022/01/14 09:01:46;;;;;;;21.30;18.83;;;0.50;99.90;;;;;;4952948;29;20259;-71
2022/01/14 09:04:16;;;;;;;17.85;15.95;;;0.60;99.90;;;;;;4953097;29;20222;-71
2022/01/14 09:06:44;;;;;;;19.30;17.40;;;0.60;99.90;;;;;;4951933;29;20265;-71
2022/01/14 09:09:12;;;;;;;20.80;18.65;;;0.60;99.90;;;;;;4947955;29;20661;-71
2022/01/14 09:11:40;;;;;;;17.83;15.98;;;0.60;99.90;;;;;;4943066;29;20227;-71
2022/01/14 09:14:08;;;;;;;21.13;19.02;;;0.50;99.90;;;;;;4952391;29;20291;-69
2022/01/14 09:16:36;;;;;;;18.25;16.50;;;0.50;99.90;;;;;;4952911;29;20255;-70
2022/01/14 09:19:05;;;;;;;18.05;16.15;;;0.50;99.90;;;;;;4953780;29;20218;-70
2022/01/14 09:21:34;;;;;;;26.95;17.85;;;0.50;99.90;;;;;;4953424;29;20611;-71
2022/01/14 09:24:05;;;;;;;24.08;18.95;;;0.60;99.90;;;;;;4952603;29;20262;-71
2022/01/14 09:26:34;;;;;;;23.27;19.55;;;0.60;99.90;;;;;;4953815;28;20242;-70
2022/01/14 09:29:03;;;;;;;20.23;18.27;;;0.60;99.90;;;;;;4956670;29;20238;-72
2022/01/14 09:31:31;;;;;;;25.70;18.80;;;0.70;99.90;;;;;;4956550;29;20227;-73
2022/01/14 09:33:59;;;;;;;23.50;20.90;;;0.70;99.90;;;;;;4956326;29;20298;-71
2022/01/14 09:36:28;;;;;;;21.10;18.83;;;0.80;99.90;;;;;;4956116;29;20732;-70
2022/01/14 09:38:58;;;;;;;32.83;19.75;;;0.90;99.90;;;;;;4937305;29;20685;-71
2022/01/14 09:41:26;;;;;;;23.98;18.33;;;1.00;99.90;;;;;;4943621;29;20557;-70
2022/01/14 09:43:55;;;;;;;30.92;19.70;;;0.80;99.90;;;;;;4943475;29;20246;-71
2022/01/14 09:46:24;;;;;;;25.58;21.85;;;0.70;99.90;;;;;;4943893;29;20223;-70
2022/01/14 09:48:52;;;;;;;33.47;23.25;;;0.60;99.90;;;;;;4927193;29;20735;-71
2022/01/14 09:51:21;;;;;;;29.48;23.02;;;0.70;99.90;;;;;;4955997;29;20270;-71
2022/01/14 09:53:49;;;;;;;31.88;25.30;;;0.70;99.90;;;;;;4955821;29;20569;-71
2022/01/14 09:56:21;;;;;;;27.73;22.85;;;0.80;99.90;;;;;;4955656;29;20251;-71
2022/01/14 09:58:50;;;;;;;30.42;24.05;;;0.90;99.90;;;;;;4956263;29;20207;-72
2022/01/14 10:01:20;;;;;;;27.83;24.75;;;1.10;99.90;;;;;;4956298;29;20238;-72
2022/01/14 10:03:53;;;;;;;24.55;21.95;;;1.20;99.90;;;;;;4956003;29;20211;-71
2022/01/14 10:06:39;;;;;;;23.75;18.88;;;1.30;99.90;;;;;;4955820;29;20266;-70
2022/01/14 10:09:09;;;;;;;26.15;22.27;;;1.40;99.90;;;;;;4948352;29;20201;-71
2022/01/14 10:11:42;;;;;;;25.98;21.70;;;1.50;99.90;;;;;;4946305;29;20246;-71
2022/01/14 10:14:12;;;;;;;32.00;22.20;;;1.50;99.90;;;;;;4955544;29;20234;-70
2022/01/14 10:16:41;;;;;;;35.22;24.45;;;1.40;99.90;;;;;;4955508;29;20787;-71
2022/01/14 10:19:20;;;;;;;26.30;23.15;;;1.30;99.90;;;;;;4955929;29;20227;-72
2022/01/14 10:21:48;;;;;;;37.13;20.95;;;1.20;99.90;;;;;;4955955;29;20199;-71
2022/01/14 10:24:16;;;;;;;29.25;22.60;;;1.20;99.90;;;;;;4955798;29;20231;-71
2022/01/14 10:26:51;;;;;;;27.35;23.58;;;1.10;99.90;;;;;;4955949;29;20227;-71
2022/01/14 10:29:38;;;;;;;31.10;23.85;;;1.20;99.90;;;;;;4956292;29;20657;-71
2022/01/14 10:32:12;;;;;;;32.25;24.10;;;1.20;99.90;;;;;;4955671;29;20223;-71
2022/01/14 10:34:40;;;;;;;24.65;21.05;;;1.10;99.90;;;;;;4955834;29;20263;-71
2022/01/14 10:37:12;;;;;;;31.48;22.73;;;1.10;99.90;;;;;;4951469;28;20247;-71
2022/01/14 10:39:46;;;;;;;30.05;21.00;;;1.10;99.90;;;;;;4942193;29;20200;-70
2022/01/14 10:42:26;;;;;;;35.50;25.20;;;1.10;99.90;;;;;;4944431;29;20743;-71
2022/01/14 10:45:17;;;;;;;48.60;22.85;;;1.10;99.90;;;;;;4956661;29;20258;-70
2022/01/14 10:47:53;;;;;;;47.72;20.48;;;0.90;99.90;;;;;;4958614;29;20234;-71
2022/01/14 10:50:31;;;;;;;43.88;21.55;;;0.90;99.90;;;;;;4945901;29;20206;-70
2022/01/14 10:53:00;;;;;;;31.00;21.25;;;0.90;99.90;;;;;;4958469;29;20230;-70
2022/01/14 10:55:31;;;;;;;36.03;20.05;;;0.80;99.90;;;;;;4957268;29;20203;-71
2022/01/14 10:58:02;;;;;;;46.80;23.23;;;0.80;99.90;;;;;;4958623;29;20283;-72
2022/01/14 11:00:48;;;;;;;38.10;22.92;;;0.80;99.90;;;;;;4958245;29;20571;-72
2022/01/14 11:03:20;;;;;;;23.70;21.10;;;0.90;99.90;;;;;;4958036;29;20282;-72
2022/01/14 11:05:48;;;;;;;34.13;24.85;;;1.00;99.90;;;;;;4957627;29;20231;-71
2022/01/14 11:08:16;;;;;;;45.38;22.17;;;1.10;99.90;;;;;;4928603;29;20252;-71
2022/01/14 11:10:44;;;;;;;47.95;27.40;;;1.00;99.90;;;;;;4938272;29;20211;-73
2022/01/14 11:13:17;;;;;;;53.85;26.40;;;0.90;99.90;;;;;;4937398;29;20318;-72
2022/01/14 11:15:46;;;;;;;40.72;22.45;;;0.90;99.90;;;;;;4942035;29;20641;-73
2022/01/14 11:18:15;;;;;;;44.28;25.05;;;0.80;99.90;;;;;;4942142;29;20203;-73
2022/01/14 11:23:29;;;;;;;58.88;26.15;;;0.90;99.90;;;;;;4954104;29;20657;-72
2022/01/14 11:26:01;;;;;;;40.78;25.60;;;0.80;99.90;;;;;;4958328;29;20679;-72
2022/01/14 11:28:33;;;;;;;52.17;23.70;;;0.80;99.90;;;;;;4954913;29;20575;-73
2022/01/14 11:31:27;;;;;;;27.52;21.23;;;0.80;99.90;;;;;;4954331;29;20586;-72
2022/01/14 11:33:56;;;;;;;36.55;27.77;;;0.80;99.90;;;;;;4943558;29;20544;-73
2022/01/14 11:36:25;;;;;;;29.02;22.13;;;0.90;99.90;;;;;;4953842;29;20223;-74
2022/01/14 11:38:53;;;;;;;36.50;24.77;;;1.00;99.90;;;;;;4944821;29;20203;-73
2022/01/14 11:41:41;;;;;;;28.73;20.90;;;1.10;99.90;;;;;;4942677;29;20243;-71
2022/01/14 11:44:10;;;;;;;32.97;23.92;;;1.10;99.90;;;;;;4953999;29;20257;-72
2022/01/14 11:46:46;;;;;;;28.73;22.60;;;1.10;99.90;;;;;;4953782;29;20369;-72
2022/01/14 11:49:35;;;;;;;23.98;20.35;;;1.10;99.90;;;;;;4953334;28;20249;-71
2022/01/14 11:52:06;;;;;;;20.30;18.30;;;1.20;99.90;;;;;;4953738;29;20216;-70
2022/01/14 11:54:44;;;;;;;20.95;18.67;;;1.30;99.90;;;;;;4953909;29;20259;-73
2022/01/14 11:57:33;;;;;;;22.90;20.60;;;1.40;99.90;;;;;;4953750;29;20246;-72
2022/01/14 12:00:04;;;;;;;21.90;19.60;;;1.40;99.90;;;;;;4936544;29;20282;-73
2022/01/14 12:02:40;;;;;;;28.98;21.48;;;1.50;99.90;;;;;;4941630;29;20648;-73
2022/01/14 12:05:17;;;;;;;22.27;19.75;;;1.60;99.90;;;;;;4948558;29;20230;-73
2022/01/14 12:08:16;;;;;;;23.30;20.90;;;1.60;99.90;;;;;;4945948;29;20232;-72
2022/01/14 12:10:53;;;;;;;26.25;21.85;;;1.60;99.90;;;;;;4868096;29;20210;-74
2022/01/14 12:13:36;;;;;;;25.70;22.75;;;1.70;99.90;;;;;;4921001;29;20240;-73
2022/01/14 12:16:08;;;;;;;27.90;20.85;;;1.70;99.90;;;;;;4949378;29;20226;-73
2022/01/14 12:19:16;;;;;;;26.23;23.02;;;1.70;99.90;;;;;;4954121;29;20243;-74
2022/01/14 12:22:10;;;;;;;23.05;20.65;;;1.70;99.90;;;;;;4953391;29;20680;-73
2022/01/14 12:24:43;;;;;;;41.78;23.40;;;1.80;99.90;;;;;;4953508;29;20691;-73
2022/01/14 12:27:40;;;;;;;35.38;24.42;;;1.90;99.90;;;;;;4953028;29;20771;-74
2022/01/14 12:30:22;;;;;;;25.85;23.13;;;1.70;99.90;;;;;;4953359;29;20246;-73
2022/01/14 12:32:54;;;;;;;21.63;19.55;;;1.70;99.90;;;;;;4953043;29;20262;-72
2022/01/14 12:35:29;;;;;;;22.33;20.08;;;1.80;99.90;;;;;;4953657;29;20196;-74
2022/01/14 12:37:59;;;;;;;27.25;24.35;;;2.00;99.90;;;;;;4953290;29;20646;-74
2022/01/14 12:40:36;;;;;;;27.10;24.27;;;2.10;99.90;;;;;;4947112;29;20205;-72
2022/01/14 12:43:06;;;;;;;24.35;22.00;;;2.30;99.90;;;;;;4950568;29;20191;-72
2022/01/14 12:45:38;;;;;;;23.33;21.13;;;2.30;99.90;;;;;;4953426;29;20258;-72
2022/01/14 12:48:28;;;;;;;24.17;21.67;;;2.30;99.90;;;;;;4952923;29;20199;-72
2022/01/14 12:51:08;;;;;;;23.38;21.08;;;2.30;99.90;;;;;;4953418;29;20750;-72
2022/01/14 12:53:36;;;;;;;25.60;23.00;;;2.20;99.90;;;;;;4952804;29;20269;-72
2022/01/14 12:56:15;;;;;;;20.65;18.55;;;2.20;99.90;;;;;;4952885;29;20298;-72
2022/01/14 12:58:54;;;;;;;21.73;19.67;;;2.20;99.90;;;;;;4952826;29;20229;-72
2022/01/14 13:01:32;;;;;;;27.20;23.67;;;2.10;99.90;;;;;;4955466;28;20210;-72
2022/01/14 13:04:04;;;;;;;29.67;25.75;;;2.20;99.90;;;;;;4956824;29;20195;-72
2022/01/14 13:06:46;;;;;;;29.13;26.23;;;1.90;99.90;;;;;;4957123;29;20250;-72
2022/01/14 13:09:18;;;;;;;30.48;27.25;;;1.70;99.90;;;;;;4955486;29;20213;-74